Portada
METAR-TAF:

METAR-TAF

Aeropuertos :

De Aar, Sudáfrica

latitud: 30-40-29S, longitud: 23-59-57E, altitud: 1286 m

Observación

El informe se hizo hace 11 horas y 55 minutos, a las 09:43 UTC
Viento 9 kt del este
Temperatura 23°C
Humedad 23%
Presión 1022 hPa
Visibilidad 10 km o más
sin nubes por debajo de 1500 m y sin presencia de cumulonimbus.

METAR: FADY 260943Z 10009KT CAVOK 23/01 Q1022

Hora: 23:38 (21:38 UTC)


TAF: falta

Observaciones y pronósticos meteorológicos de más de 4000 aeropuertos (mensajes METAR y TAF).

Los puntos amarillos y rojos representan las estaciones disponibles.

Ponga el ratón en el punto deseado para ver el nombre de la estación.

Haga clic para ver las observaciones y los pronósticos meteorológicos.

Para cambiar el mapa : haga clic en los botones verdes con una cruz de color negro para hacer un zoom, en el botón verde con un guión para alejar o en las flechas verdes para mapas adyacentes.


METAR-TAF: